Time;durP1;ratioP1;P1;durP2;ratioP2;P2;SDS_P1;SDS_P2;PMS_P1;PMS_P2;Temp;Humidity;BMP_temperature;BMP_pressure;BME280_temperature;BME280_humidity;BME280_pressure;Samples;Min_cycle;Max_cycle;Signal;HPM_P1;HPM_P2
2023/12/25 00:02:06;;;;;;;0.60;0.60;;;;;;;10.27;65.37;98190.69;4869096;29;20044;-78
2023/12/25 00:04:31;;;;;;;0.50;0.50;;;;;;;10.20;65.41;98178.03;4868395;29;20041;-78
2023/12/25 00:06:57;;;;;;;0.57;0.57;;;;;;;10.15;65.66;98176.16;4866875;29;20041;-79
2023/12/25 00:09:22;;;;;;;0.50;0.50;;;;;;;10.13;65.57;98177.91;4863663;29;20428;-78
2023/12/25 00:11:48;;;;;;;0.50;0.50;;;;;;;10.21;65.31;98184.31;4867561;29;20045;-78
2023/12/25 00:14:13;;;;;;;0.60;0.60;;;;;;;10.02;66.24;98186.56;4867255;29;20040;-79
2023/12/25 00:16:40;;;;;;;0.50;0.50;;;;;;;9.99;66.64;98181.16;4865878;29;20052;-79
2023/12/25 00:19:07;;;;;;;0.60;0.60;;;;;;;9.99;66.50;98182.91;4882377;29;20483;-78
2023/12/25 00:21:32;;;;;;;0.50;0.50;;;;;;;10.10;65.89;98175.16;4865646;29;20045;-79
2023/12/25 00:23:57;;;;;;;0.60;0.60;;;;;;;10.12;65.34;98177.00;4865894;29;20353;-78
2023/12/25 00:26:23;;;;;;;0.60;0.60;;;;;;;10.09;65.56;98181.34;4881230;29;20231;-78
2023/12/25 00:28:56;;;;;;;0.50;0.50;;;;;;;10.20;65.20;98174.50;4865844;29;20666;-78
2023/12/25 00:31:21;;;;;;;0.50;0.50;;;;;;;10.12;65.59;98186.78;4864089;29;20065;-77
2023/12/25 00:33:47;;;;;;;0.60;0.60;;;;;;;10.12;65.19;98186.78;4881009;29;20044;-79
2023/12/25 00:36:13;;;;;;;0.60;0.60;;;;;;;10.19;64.69;98181.59;4879061;29;20133;-78
2023/12/25 00:38:38;;;;;;;0.60;0.60;;;;;;;10.11;65.01;98180.53;4863923;29;20048;-78
2023/12/25 00:41:04;;;;;;;0.50;0.50;;;;;;;10.17;65.02;98185.09;4864657;29;20033;-77
2023/12/25 00:43:29;;;;;;;0.50;0.50;;;;;;;10.11;64.99;98182.28;4843364;29;20132;-78
2023/12/25 00:45:55;;;;;;;0.60;0.60;;;;;;;10.03;65.39;98180.34;4867193;29;20048;-77
2023/12/25 00:48:20;;;;;;;0.60;0.60;;;;;;;10.09;64.98;98186.69;4867123;29;20045;-79
2023/12/25 00:50:46;;;;;;;0.60;0.60;;;;;;;10.10;64.48;98170.72;4871066;29;20738;-78
2023/12/25 00:53:11;;;;;;;0.60;0.60;;;;;;;10.14;64.38;98174.38;4882415;29;20464;-79
2023/12/25 00:55:37;;;;;;;0.60;0.60;;;;;;;10.12;64.69;98176.09;4855069;29;20521;-79
2023/12/25 00:58:03;;;;;;;0.52;0.52;;;;;;;10.09;64.69;98168.94;4868925;29;20033;-78
2023/12/25 01:00:28;;;;;;;0.60;0.60;;;;;;;10.03;65.08;98163.47;4861369;29;20840;-80
2023/12/25 01:02:54;;;;;;;0.60;0.60;;;;;;;10.00;64.96;98166.97;4868415;29;20079;-78
2023/12/25 01:05:19;;;;;;;0.60;0.60;;;;;;;10.05;64.57;98168.81;4870219;29;20140;-78
2023/12/25 01:07:44;;;;;;;0.50;0.50;;;;;;;10.07;64.69;98154.69;4870107;29;20389;-79
2023/12/25 01:10:10;;;;;;;0.60;0.60;;;;;;;10.15;64.22;98162.81;4882943;29;20052;-79
2023/12/25 01:12:35;;;;;;;0.50;0.50;;;;;;;10.01;64.77;98159.84;4869102;29;20174;-78
2023/12/25 01:15:01;;;;;;;0.60;0.60;;;;;;;9.97;64.90;98155.34;4870198;29;20045;-78
2023/12/25 01:17:26;;;;;;;0.60;0.60;;;;;;;9.91;65.05;98155.19;4864420;29;20075;-78
2023/12/25 01:19:52;;;;;;;0.55;0.55;;;;;;;9.75;65.96;98164.59;4882784;29;20073;-78
2023/12/25 01:22:18;;;;;;;0.50;0.50;;;;;;;9.81;65.42;98175.41;4881962;29;20127;-76
2023/12/25 01:24:44;;;;;;;0.60;0.60;;;;;;;9.82;64.87;98169.22;4870321;29;20524;-77
2023/12/25 01:27:09;;;;;;;0.60;0.60;;;;;;;9.86;65.05;98176.41;4869328;29;20176;-78
2023/12/25 01:29:36;;;;;;;0.60;0.60;;;;;;;9.91;64.66;98174.75;4866614;29;20601;-78
2023/12/25 01:32:05;;;;;;;0.65;0.65;;;;;;;9.95;64.40;98170.38;4848194;29;20450;-78
2023/12/25 01:34:31;;;;;;;0.60;0.60;;;;;;;9.85;64.92;98174.59;4865571;29;20097;-78
2023/12/25 01:36:57;;;;;;;0.70;0.70;;;;;;;9.91;64.69;98172.06;4867935;29;20792;-78
2023/12/25 01:39:23;;;;;;;0.60;0.60;;;;;;;9.98;64.09;98179.34;4866313;29;20296;-78
2023/12/25 01:41:48;;;;;;;0.60;0.60;;;;;;;9.87;64.62;98175.56;4864478;29;20053;-77
2023/12/25 01:44:15;;;;;;;0.60;0.60;;;;;;;9.92;64.54;98173.00;4861785;29;20160;-78
2023/12/25 01:46:41;;;;;;;0.60;0.60;;;;;;;9.94;64.45;98180.16;4869497;29;20128;-78
2023/12/25 01:49:07;;;;;;;0.63;0.63;;;;;;;9.96;63.95;98167.75;4866961;29;20477;-77
2023/12/25 01:51:34;;;;;;;0.70;0.70;;;;;;;9.91;64.45;98173.84;4867862;29;20044;-78
2023/12/25 01:54:02;;;;;;;0.60;0.60;;;;;;;9.91;64.32;98163.19;4870269;29;20041;-77
2023/12/25 01:56:28;;;;;;;0.70;0.70;;;;;;;9.83;64.63;98179.03;4869534;29;20124;-78
2023/12/25 01:58:53;;;;;;;0.60;0.60;;;;;;;9.87;63.90;98179.97;4882995;29;20108;-77
2023/12/25 02:01:19;;;;;;;0.60;0.60;;;;;;;9.94;64.22;98166.81;4868542;29;20052;-76
2023/12/25 02:03:46;;;;;;;0.60;0.60;;;;;;;10.01;63.45;98171.44;4883295;29;20044;-78
2023/12/25 02:06:12;;;;;;;;;;;;;;;9.92;63.88;98181.00;4856548;29;20045;-78
2023/12/25 02:08:38;;;;;;;0.70;0.70;;;;;;;9.93;63.88;98183.69;4869009;29;19920;-78
2023/12/25 02:11:04;;;;;;;0.70;0.70;;;;;;;9.85;64.12;98187.94;4869077;29;20037;-78
2023/12/25 02:13:30;;;;;;;0.70;0.70;;;;;;;9.89;63.57;98179.16;4870071;29;20132;-78
2023/12/25 02:15:56;;;;;;;0.60;0.60;;;;;;;9.91;64.21;98174.75;4885298;29;20441;-78
2023/12/25 02:18:22;;;;;;;0.60;0.60;;;;;;;9.84;63.92;98185.25;4867864;29;20648;-78
2023/12/25 02:20:48;;;;;;;0.70;0.70;;;;;;;9.76;64.24;98191.28;4853255;29;20033;-78
2023/12/25 02:23:16;;;;;;;0.60;0.60;;;;;;;9.87;63.75;98195.94;4852755;29;20045;-79
2023/12/25 02:25:54;;;;;;;0.60;0.60;;;;;;;9.84;63.72;98207.44;4865142;29;20100;-79
2023/12/25 02:28:20;;;;;;;0.60;0.60;;;;;;;9.81;64.26;98206.47;4868191;29;20052;-78
2023/12/25 02:30:46;;;;;;;0.57;0.57;;;;;;;9.87;63.38;98202.22;4873288;29;20440;-79
2023/12/25 02:33:11;;;;;;;0.70;0.70;;;;;;;9.94;62.66;98198.81;4883954;29;20624;-78
2023/12/25 02:35:37;;;;;;;0.70;0.70;;;;;;;9.97;62.33;98198.88;4882732;29;20573;-78
2023/12/25 02:38:03;;;;;;;0.68;0.68;;;;;;;9.90;63.17;98191.59;4861249;29;20714;-80
2023/12/25 02:40:28;;;;;;;0.65;0.65;;;;;;;9.92;63.22;98197.88;4866334;29;20119;-79
2023/12/25 02:42:54;;;;;;;0.60;0.60;;;;;;;9.92;63.20;98203.22;4866915;29;20048;-79
2023/12/25 02:45:19;;;;;;;0.63;0.63;;;;;;;9.96;62.63;98196.16;4868022;29;20064;-77
2023/12/25 02:47:45;;;;;;;0.70;0.70;;;;;;;9.88;63.14;98189.78;4869507;29;20060;-79
2023/12/25 02:50:10;;;;;;;0.70;0.70;;;;;;;9.89;63.29;98197.81;4856713;29;20045;-80
2023/12/25 02:52:35;;;;;;;0.60;0.60;;;;;;;9.73;63.66;98193.88;4881929;29;20041;-78
2023/12/25 02:55:01;;;;;;;0.60;0.60;;;;;;;9.81;63.87;98196.72;4867462;29;20048;-78
2023/12/25 02:57:28;;;;;;;0.60;0.60;;;;;;;9.81;63.65;98187.81;4880912;29;20104;-78
2023/12/25 02:59:53;;;;;;;0.70;0.70;;;;;;;9.74;63.41;98185.03;4861137;29;20041;-78
2023/12/25 03:02:19;;;;;;;0.70;0.70;;;;;;;9.87;62.89;98177.28;4866774;29;20053;-78
2023/12/25 03:04:44;;;;;;;0.60;0.60;;;;;;;9.84;63.13;98182.56;4864237;29;20156;-78
2023/12/25 03:07:10;;;;;;;0.60;0.60;;;;;;;9.86;62.87;98178.16;4861150;29;20078;-78
2023/12/25 03:09:35;;;;;;;0.65;0.65;;;;;;;9.83;63.50;98184.34;4867320;29;20112;-77
2023/12/25 03:12:01;;;;;;;0.60;0.60;;;;;;;9.80;63.07;98172.72;4864975;29;20033;-77
2023/12/25 03:14:27;;;;;;;0.70;0.70;;;;;;;9.79;63.51;98174.47;4868089;29;20498;-77
2023/12/25 03:16:52;;;;;;;0.70;0.70;;;;;;;9.71;64.00;98176.06;4882577;29;20522;-78
2023/12/25 03:19:17;;;;;;;0.60;0.60;;;;;;;9.80;63.83;98180.69;4881700;29;20104;-77
2023/12/25 03:21:43;;;;;;;0.70;0.70;;;;;;;9.78;63.73;98180.69;4881274;29;20052;-77
2023/12/25 03:24:09;;;;;;;0.60;0.60;;;;;;;9.71;64.30;98190.25;4869661;29;20033;-77
2023/12/25 03:26:34;;;;;;;0.60;0.60;;;;;;;9.74;63.82;98190.34;4884404;29;20092;-78
2023/12/25 03:29:00;;;;;;;0.60;0.60;;;;;;;9.75;63.47;98184.16;4882607;29;20033;-77
2023/12/25 03:31:25;;;;;;;0.70;0.70;;;;;;;9.66;64.15;98191.03;4859691;29;20624;-78
2023/12/25 03:33:51;;;;;;;0.60;0.60;;;;;;;9.66;64.32;98191.91;4867719;29;20060;-77
2023/12/25 03:36:17;;;;;;;0.60;0.60;;;;;;;9.66;63.72;98181.28;4867364;29;20048;-78
2023/12/25 03:38:42;;;;;;;0.60;0.60;;;;;;;9.82;63.27;98182.56;4863602;29;20045;-78
2023/12/25 03:41:08;;;;;;;0.65;0.65;;;;;;;9.75;63.25;98183.25;4870528;29;20076;-78
2023/12/25 03:43:34;;;;;;;0.60;0.60;;;;;;;9.73;63.03;98182.34;4882423;29;20591;-77
2023/12/25 03:45:59;;;;;;;0.60;0.60;;;;;;;9.67;62.88;98188.38;4882716;29;20052;-77
2023/12/25 03:48:25;;;;;;;0.68;0.68;;;;;;;9.69;63.16;98181.34;4869742;29;20128;-78
2023/12/25 03:50:50;;;;;;;0.70;0.70;;;;;;;9.71;62.96;98176.94;4869722;29;20071;-77
2023/12/25 03:53:16;;;;;;;0.60;0.60;;;;;;;9.77;61.94;98177.13;4869015;29;20503;-77
2023/12/25 03:55:41;;;;;;;0.70;0.70;;;;;;;9.76;62.49;98179.72;4865835;29;20128;-77
2023/12/25 03:58:06;;;;;;;0.60;0.60;;;;;;;9.72;62.58;98178.75;4866425;29;20069;-77
2023/12/25 04:00:33;;;;;;;0.70;0.70;;;;;;;9.75;62.70;98172.59;4881674;29;20037;-78
2023/12/25 04:02:59;;;;;;;0.60;0.60;;;;;;;9.65;63.07;98182.13;4882927;29;20049;-77
2023/12/25 04:05:24;;;;;;;0.60;0.60;;;;;;;9.78;62.02;98180.69;4864998;29;20916;-77
2023/12/25 04:07:50;;;;;;;0.60;0.60;;;;;;;9.82;61.56;98178.97;4884299;29;20040;-79
2023/12/25 04:10:16;;;;;;;0.60;0.60;;;;;;;9.72;62.01;98183.16;4861739;29;20052;-77
2023/12/25 04:12:42;;;;;;;0.60;0.60;;;;;;;9.80;61.46;98186.03;4865957;29;20036;-79
2023/12/25 04:15:08;;;;;;;0.60;0.60;;;;;;;9.70;61.55;98190.25;4861530;29;20361;-78
2023/12/25 04:17:34;;;;;;;0.70;0.70;;;;;;;9.67;61.80;98188.38;4867950;29;20119;-79
2023/12/25 04:20:00;;;;;;;0.50;0.50;;;;;;;9.63;62.03;98196.28;4860088;29;20047;-79
2023/12/25 04:22:25;;;;;;;0.60;0.60;;;;;;;9.80;60.24;98197.59;4866975;29;20037;-78
2023/12/25 04:24:51;;;;;;;0.60;0.60;;;;;;;9.81;60.07;98191.38;4880276;29;20506;-78
2023/12/25 04:27:18;;;;;;;0.60;0.60;;;;;;;9.68;60.96;98184.88;4869198;29;20045;-78
2023/12/25 04:29:44;;;;;;;0.60;0.60;;;;;;;9.74;60.33;98197.44;4880518;29;20037;-78
2023/12/25 04:32:09;;;;;;;0.70;0.70;;;;;;;9.76;59.89;98198.38;4866176;29;21318;-78
2023/12/25 04:34:35;;;;;;;0.50;0.50;;;;;;;9.70;60.78;98200.91;4851416;29;20099;-78
2023/12/25 04:37:03;;;;;;;0.60;0.60;;;;;;;9.69;60.04;98199.09;4861839;29;20162;-78
2023/12/25 04:39:29;;;;;;;0.52;0.52;;;;;;;9.70;60.30;98193.81;4880874;29;20455;-77
2023/12/25 04:41:55;;;;;;;0.60;0.60;;;;;;;9.64;60.29;98193.66;4867867;29;20093;-77
2023/12/25 04:44:20;;;;;;;0.60;0.60;;;;;;;9.61;60.51;98193.59;4867383;29;20644;-78
2023/12/25 04:46:45;;;;;;;0.60;0.60;;;;;;;9.68;60.33;98186.66;4857626;29;20103;-78
2023/12/25 04:49:11;;;;;;;0.70;0.70;;;;;;;9.63;60.50;98185.63;4882360;29;20041;-78
2023/12/25 04:51:36;;;;;;;0.70;0.70;;;;;;;9.56;60.40;98179.25;4869691;29;20041;-78
2023/12/25 04:54:03;;;;;;;0.70;0.70;;;;;;;9.61;60.47;98176.69;4868130;29;20045;-78
2023/12/25 04:56:28;;;;;;;0.63;0.63;;;;;;;9.53;60.55;98195.16;4866006;29;20057;-78
2023/12/25 04:58:54;;;;;;;0.70;0.70;;;;;;;9.52;60.92;98188.94;4865038;29;20124;-78
2023/12/25 05:01:19;;;;;;;0.60;0.60;;;;;;;9.50;60.86;98185.34;4866316;29;20049;-78
2023/12/25 05:03:45;;;;;;;0.60;0.60;;;;;;;9.45;61.34;98181.66;4867585;29;20041;-79
2023/12/25 05:06:10;;;;;;;0.70;0.70;;;;;;;9.62;61.01;98187.38;4864837;29;20810;-78
2023/12/25 05:08:36;;;;;;;0.60;0.60;;;;;;;9.55;60.62;98190.78;4866794;29;20040;-78
2023/12/25 05:11:01;;;;;;;0.60;0.60;;;;;;;9.55;60.44;98190.78;4865482;29;20271;-79
2023/12/25 05:13:27;;;;;;;0.60;0.60;;;;;;;9.57;61.05;98202.34;4865637;29;20176;-78
2023/12/25 05:15:53;;;;;;;0.70;0.70;;;;;;;9.58;60.96;98204.19;4867252;29;20041;-78
2023/12/25 05:18:18;;;;;;;0.60;0.60;;;;;;;9.61;60.75;98203.34;4866345;29;20848;-77
2023/12/25 05:20:44;;;;;;;0.60;0.60;;;;;;;9.65;60.61;98208.78;4866634;29;20751;-77
2023/12/25 05:23:09;;;;;;;0.60;0.60;;;;;;;9.68;59.95;98199.97;4867089;29;20057;-78
2023/12/25 05:25:35;;;;;;;0.70;0.70;;;;;;;9.71;59.90;98195.59;4883227;29;20073;-78
2023/12/25 05:28:00;;;;;;;0.60;0.60;;;;;;;9.47;60.91;98193.25;4869145;29;20391;-78
2023/12/25 05:30:25;;;;;;;0.60;0.60;;;;;;;9.49;61.13;98199.53;4866232;29;20040;-78
2023/12/25 05:32:51;;;;;;;0.60;0.60;;;;;;;9.43;60.54;98194.03;4864705;29;20041;-78
2023/12/25 05:35:16;;;;;;;0.65;0.65;;;;;;;9.33;61.30;98191.09;4869700;29;20089;-79
2023/12/25 05:37:42;;;;;;;0.70;0.70;;;;;;;9.36;61.61;98183.19;4862568;29;20047;-79
2023/12/25 05:40:08;;;;;;;0.65;0.65;;;;;;;9.21;62.53;98179.28;4870726;29;20112;-79
2023/12/25 05:42:33;;;;;;;0.60;0.60;;;;;;;8.90;64.12;98188.22;4869334;29;20073;-78
2023/12/25 05:44:59;;;;;;;0.60;0.60;;;;;;;8.99;63.81;98177.81;4881793;29;20029;-78
2023/12/25 05:47:24;;;;;;;0.70;0.70;;;;;;;9.14;63.32;98174.66;4863549;29;20385;-77
2023/12/25 05:49:52;;;;;;;0.70;0.70;;;;;;;9.12;63.76;98178.16;4871128;29;20076;-78
2023/12/25 05:52:17;;;;;;;0.70;0.70;;;;;;;9.07;63.78;98178.03;4870574;29;20041;-77
2023/12/25 05:54:42;;;;;;;0.70;0.70;;;;;;;9.08;63.42;98179.81;4870319;29;20547;-78
2023/12/25 05:57:08;;;;;;;0.60;0.60;;;;;;;9.09;63.66;98183.38;4871058;29;20037;-78
2023/12/25 05:59:35;;;;;;;0.63;0.63;;;;;;;9.23;63.45;98184.63;4885638;29;20036;-77
2023/12/25 06:02:01;;;;;;;0.60;0.60;;;;;;;9.19;63.14;98193.41;4870554;29;20119;-77
2023/12/25 06:04:26;;;;;;;0.60;0.60;;;;;;;9.28;62.79;98188.31;4869284;29;20717;-78
2023/12/25 06:06:53;;;;;;;0.60;0.60;;;;;;;9.19;63.61;98188.97;4868746;29;21044;-79
2023/12/25 06:09:19;;;;;;;;;;;;;;;9.29;62.85;98192.78;4870536;29;20072;-79
2023/12/25 06:11:45;;;;;;;0.80;0.80;;;;;;;9.22;62.93;98204.13;4870781;29;19923;-79
2023/12/25 06:14:10;;;;;;;0.70;0.70;;;;;;;9.16;63.30;98204.88;4865742;29;20510;-77
2023/12/25 06:16:36;;;;;;;0.60;0.60;;;;;;;9.19;63.03;98204.94;4870908;29;20064;-77
2023/12/25 06:19:01;;;;;;;0.70;0.70;;;;;;;9.14;63.43;98206.59;4883278;29;20451;-77
2023/12/25 06:21:27;;;;;;;0.65;0.65;;;;;;;9.23;63.11;98205.94;4869238;29;20048;-77
2023/12/25 06:23:53;;;;;;;0.68;0.68;;;;;;;9.22;62.81;98204.13;4865705;29;20041;-78
2023/12/25 06:26:19;;;;;;;0.70;0.70;;;;;;;9.30;62.70;98207.91;4869115;29;20056;-77
2023/12/25 06:28:44;;;;;;;0.60;0.60;;;;;;;9.21;62.70;98207.66;4868728;29;20674;-77
2023/12/25 06:31:10;;;;;;;0.63;0.63;;;;;;;9.13;63.39;98201.25;4869172;29;20060;-78
2023/12/25 06:33:35;;;;;;;0.60;0.60;;;;;;;9.27;62.07;98207.81;4869366;29;20078;-77
2023/12/25 06:36:01;;;;;;;0.60;0.60;;;;;;;9.37;62.20;98208.94;4863992;29;20042;-78
2023/12/25 06:38:26;;;;;;;0.65;0.65;;;;;;;9.25;62.57;98218.44;4883374;29;20052;-77
2023/12/25 06:40:52;;;;;;;0.60;0.60;;;;;;;9.28;61.82;98214.94;4871996;29;20033;-77
2023/12/25 06:43:17;;;;;;;0.60;0.60;;;;;;;9.31;62.02;98217.69;4869032;29;20049;-77
2023/12/25 06:45:43;;;;;;;0.60;0.60;;;;;;;9.18;62.11;98218.22;4870897;29;20037;-79
2023/12/25 06:48:08;;;;;;;0.60;0.60;;;;;;;9.20;61.46;98216.53;4869642;29;20083;-77
2023/12/25 06:50:35;;;;;;;0.60;0.60;;;;;;;9.20;61.59;98211.19;4869156;29;20037;-78
2023/12/25 06:53:00;;;;;;;0.60;0.60;;;;;;;9.25;61.76;98215.78;4867420;29;20484;-78
2023/12/25 06:55:26;;;;;;;0.68;0.68;;;;;;;9.07;62.11;98225.03;4867923;29;20053;-78
2023/12/25 06:57:51;;;;;;;0.60;0.60;;;;;;;8.97;62.84;98222.13;4856759;29;20520;-78
2023/12/25 07:00:17;;;;;;;0.65;0.65;;;;;;;9.04;62.11;98225.84;4865964;29;20067;-78
2023/12/25 07:02:43;;;;;;;0.60;0.60;;;;;;;9.07;61.63;98228.59;4867521;29;20405;-78
2023/12/25 07:05:08;;;;;;;0.60;0.60;;;;;;;9.08;62.25;98234.81;4884143;29;20045;-78
2023/12/25 07:07:34;;;;;;;0.60;0.60;;;;;;;9.13;61.46;98230.50;4869346;29;20056;-78
2023/12/25 07:09:59;;;;;;;0.63;0.63;;;;;;;9.00;62.15;98232.81;4868528;29;20072;-79
2023/12/25 07:12:24;;;;;;;0.60;0.60;;;;;;;8.97;62.18;98229.22;4860635;29;20076;-79
2023/12/25 07:14:53;;;;;;;0.60;0.60;;;;;;;9.04;62.36;98232.91;4880135;29;20080;-78
2023/12/25 07:17:19;;;;;;;0.60;0.60;;;;;;;8.96;62.05;98228.31;4868861;29;20071;-78
2023/12/25 07:19:44;;;;;;;0.60;0.60;;;;;;;8.97;62.64;98231.88;4867242;29;20068;-77
2023/12/25 07:22:13;;;;;;;0.60;0.60;;;;;;;8.63;63.35;98224.72;4866205;29;20060;-78
2023/12/25 07:24:38;;;;;;;0.65;0.65;;;;;;;8.47;64.24;98242.84;4880215;29;20106;-78
2023/12/25 07:27:08;;;;;;;0.70;0.70;;;;;;;8.33;66.39;98244.16;4869426;29;20048;-79
2023/12/25 07:29:33;;;;;;;0.70;0.70;;;;;;;8.44;65.78;98248.09;4867967;29;20404;-79
2023/12/25 07:31:59;;;;;;;0.70;0.70;;;;;;;8.37;66.63;98242.53;4869150;29;20046;-79
2023/12/25 07:34:25;;;;;;;0.70;0.70;;;;;;;8.56;63.82;98247.53;4869819;29;20056;-79
2023/12/25 07:36:50;;;;;;;0.70;0.70;;;;;;;8.72;63.95;98243.59;4870359;29;20057;-78
2023/12/25 07:39:16;;;;;;;0.70;0.70;;;;;;;8.83;62.87;98252.75;4868573;29;20085;-78
2023/12/25 07:41:45;;;;;;;0.60;0.60;;;;;;;8.95;62.26;98255.75;4864475;29;20045;-78
2023/12/25 07:44:13;;;;;;;0.70;0.70;;;;;;;9.00;62.07;98256.78;4883597;29;20128;-78
2023/12/25 07:46:39;;;;;;;0.65;0.65;;;;;;;9.06;60.83;98253.41;4885176;29;20044;-79
2023/12/25 07:49:04;;;;;;;0.60;0.60;;;;;;;9.16;60.76;98258.13;4867848;29;20420;-79
2023/12/25 07:51:30;;;;;;;0.70;0.70;;;;;;;9.10;60.48;98263.28;4863138;29;20480;-80
2023/12/25 07:53:55;;;;;;;0.60;0.60;;;;;;;9.20;60.06;98270.66;4868641;29;20068;-79
2023/12/25 07:56:21;;;;;;;0.63;0.63;;;;;;;9.28;59.05;98264.63;4882169;29;20093;-78
2023/12/25 07:58:46;;;;;;;0.60;0.60;;;;;;;9.31;58.94;98262.03;4868709;29;20400;-79
2023/12/25 08:01:13;;;;;;;0.60;0.60;;;;;;;9.36;58.86;98261.31;4868623;29;20480;-79
2023/12/25 08:03:39;;;;;;;0.70;0.70;;;;;;;9.49;58.37;98274.09;4866641;29;20047;-79
2023/12/25 08:06:05;;;;;;;0.60;0.60;;;;;;;9.49;58.45;98278.50;4868452;29;20041;-79
2023/12/25 08:08:31;;;;;;;0.70;0.70;;;;;;;9.64;57.91;98278.91;4866926;29;20057;-79
2023/12/25 08:10:57;;;;;;;0.70;0.70;;;;;;;9.57;58.02;98268.03;4869644;29;20457;-79
2023/12/25 08:13:23;;;;;;;0.70;0.70;;;;;;;9.71;57.72;98277.28;4867579;29;20042;-79
2023/12/25 08:15:48;;;;;;;0.60;0.60;;;;;;;9.59;57.79;98279.66;4869766;29;20307;-79
2023/12/25 08:18:13;;;;;;;0.60;0.60;;;;;;;9.61;57.56;98283.22;4866006;29;20401;-79
2023/12/25 08:20:39;;;;;;;0.70;0.70;;;;;;;9.69;56.80;98282.56;4865692;29;20401;-79
2023/12/25 08:23:04;;;;;;;0.68;0.68;;;;;;;9.83;56.83;98295.34;4878947;29;20780;-78
2023/12/25 08:25:30;;;;;;;0.60;0.60;;;;;;;9.88;56.84;98299.94;4867031;29;20232;-79
2023/12/25 08:27:56;;;;;;;0.60;0.60;;;;;;;9.83;57.38;98296.25;4867595;29;20064;-79
2023/12/25 08:30:21;;;;;;;0.60;0.60;;;;;;;9.83;56.42;98306.91;4880872;29;20124;-79
2023/12/25 08:32:47;;;;;;;0.60;0.60;;;;;;;9.77;56.68;98312.06;4867092;29;20146;-80
2023/12/25 08:35:12;;;;;;;0.50;0.50;;;;;;;9.67;57.44;98304.69;4866007;29;20186;-80
2023/12/25 08:37:39;;;;;;;0.60;0.60;;;;;;;9.75;56.87;98311.13;4865669;29;20080;-79
2023/12/25 08:40:05;;;;;;;0.63;0.63;;;;;;;9.77;56.42;98314.72;4867840;29;20539;-79
2023/12/25 08:42:30;;;;;;;0.60;0.60;;;;;;;9.79;56.51;98313.00;4866608;29;20047;-79
2023/12/25 08:44:56;;;;;;;0.68;0.68;;;;;;;9.86;56.14;98317.63;4867052;29;20045;-79
2023/12/25 08:47:22;;;;;;;0.60;0.60;;;;;;;9.92;56.49;98325.78;4867133;29;20060;-79
2023/12/25 08:49:48;;;;;;;0.63;0.63;;;;;;;9.91;56.32;98326.63;4867323;29;20400;-80
2023/12/25 08:52:13;;;;;;;0.60;0.60;;;;;;;10.01;56.06;98334.03;4866841;29;20755;-79
2023/12/25 08:54:39;;;;;;;0.70;0.70;;;;;;;10.01;55.48;98336.69;4868369;29;20036;-78
2023/12/25 08:57:04;;;;;;;0.60;0.60;;;;;;;10.14;54.91;98337.88;4868591;29;20395;-79
2023/12/25 08:59:30;;;;;;;0.60;0.60;;;;;;;10.28;54.80;98333.81;4867201;29;20093;-80
2023/12/25 09:01:55;;;;;;;0.60;0.60;;;;;;;10.03;55.74;98331.38;4867031;29;20106;-80
2023/12/25 09:04:21;;;;;;;0.60;0.60;;;;;;;9.87;55.95;98327.44;4868772;29;20041;-79
2023/12/25 09:06:47;;;;;;;0.60;0.60;;;;;;;9.84;55.54;98331.78;4867089;29;20100;-79
2023/12/25 09:09:13;;;;;;;0.70;0.70;;;;;;;9.81;56.14;98329.03;4881540;29;20077;-78
2023/12/25 09:11:39;;;;;;;0.55;0.55;;;;;;;9.73;56.56;98321.75;4868866;29;20124;-78
2023/12/25 09:14:04;;;;;;;0.70;0.70;;;;;;;9.80;55.68;98317.47;4868306;29;20067;-78
2023/12/25 09:16:29;;;;;;;0.70;0.70;;;;;;;9.81;56.18;98319.25;4870512;29;20037;-79
2023/12/25 09:18:55;;;;;;;0.60;0.60;;;;;;;9.83;55.94;98322.88;4871821;29;20172;-79
2023/12/25 09:21:21;;;;;;;0.60;0.60;;;;;;;9.85;56.05;98326.47;4870814;29;20828;-79
2023/12/25 09:23:47;;;;;;;0.60;0.60;;;;;;;9.91;55.51;98323.06;4868678;29;20047;-79
2023/12/25 09:26:19;;;;;;;0.60;0.60;;;;;;;9.95;55.86;98330.28;4885218;29;20052;-79
2023/12/25 09:28:46;;;;;;;0.60;0.60;;;;;;;9.87;56.38;98343.44;4872405;29;20097;-79
2023/12/25 09:31:12;;;;;;;0.60;0.60;;;;;;;9.84;56.72;98346.00;4870392;29;20408;-79
2023/12/25 09:33:37;;;;;;;0.60;0.60;;;;;;;9.80;56.98;98349.44;4885443;29;20215;-79
2023/12/25 09:36:03;;;;;;;0.60;0.60;;;;;;;9.85;56.90;98361.13;4884841;29;20637;-79
2023/12/25 09:38:28;;;;;;;0.60;0.60;;;;;;;9.98;56.67;98343.69;4885030;29;20487;-79
2023/12/25 09:40:55;;;;;;;0.60;0.60;;;;;;;9.96;56.40;98345.41;4870346;29;20037;-79
2023/12/25 09:43:22;;;;;;;0.68;0.68;;;;;;;9.87;57.74;98337.16;4883832;29;20057;-79
2023/12/25 09:45:49;;;;;;;0.70;0.70;;;;;;;9.92;57.67;98347.09;4863322;29;20123;-79
2023/12/25 09:48:17;;;;;;;0.60;0.60;;;;;;;9.97;56.63;98342.78;4870904;29;20077;-78
2023/12/25 09:50:43;;;;;;;0.60;0.60;;;;;;;9.98;56.77;98344.59;4871926;29;20052;-78
2023/12/25 09:53:08;;;;;;;0.60;0.60;;;;;;;10.00;56.67;98350.84;4849364;29;20045;-78
2023/12/25 09:55:34;;;;;;;0.60;0.60;;;;;;;10.06;56.52;98350.13;4871382;29;20061;-79
2023/12/25 09:58:04;;;;;;;0.60;0.60;;;;;;;9.98;56.80;98341.03;4885231;29;20432;-79
2023/12/25 10:00:30;;;;;;;0.60;0.60;;;;;;;9.83;57.11;98344.22;4864535;29;20040;-79
2023/12/25 10:02:57;;;;;;;0.60;0.60;;;;;;;9.93;57.03;98335.56;4871110;29;20041;-79
2023/12/25 10:05:22;;;;;;;;;;;;;;;10.00;57.21;98331.28;4869835;29;20073;-79
2023/12/25 10:07:48;;;;;;;0.70;0.70;;;;;;;9.97;57.46;98332.13;4870709;29;19920;-79
2023/12/25 10:10:13;;;;;;;0.60;0.60;;;;;;;10.02;56.95;98329.59;4871650;29;20045;-79
2023/12/25 10:12:43;;;;;;;0.60;0.60;;;;;;;10.15;57.34;98315.66;4871782;29;20056;-78
2023/12/25 10:15:09;;;;;;;0.70;0.70;;;;;;;9.95;57.65;98320.50;4853703;29;20045;-81
2023/12/25 10:17:34;;;;;;;0.60;0.60;;;;;;;10.11;57.76;98319.16;4861555;29;20044;-80
2023/12/25 10:20:00;;;;;;;0.60;0.60;;;;;;;10.19;57.60;98314.88;4880572;29;20037;-81
2023/12/25 10:22:29;;;;;;;0.60;0.60;;;;;;;10.09;58.09;98311.97;4872940;29;20041;-80
2023/12/25 10:25:03;;;;;;;0.63;0.63;;;;;;;10.07;58.12;98316.38;4868532;29;20111;-80
2023/12/25 10:27:29;;;;;;;0.50;0.50;;;;;;;10.09;57.91;98318.19;4881699;29;20813;-80
2023/12/25 10:29:54;;;;;;;0.60;0.60;;;;;;;10.08;58.38;98315.50;4867304;29;20552;-81
2023/12/25 10:32:20;;;;;;;0.60;0.60;;;;;;;10.13;58.79;98321.84;4865271;29;20033;-79
2023/12/25 10:34:45;;;;;;;0.60;0.60;;;;;;;10.10;59.00;98316.44;4868077;29;20045;-81
2023/12/25 10:37:12;;;;;;;0.50;0.50;;;;;;;10.08;58.91;98318.16;4865220;29;20047;-79
2023/12/25 10:39:38;;;;;;;0.60;0.60;;;;;;;10.08;59.58;98320.84;4865675;29;20094;-80
2023/12/25 10:42:04;;;;;;;0.50;0.50;;;;;;;10.12;59.77;98320.03;4865846;29;20706;-80
2023/12/25 10:44:32;;;;;;;0.50;0.50;;;;;;;10.19;59.71;98314.88;4861868;29;20044;-79
2023/12/25 10:47:02;;;;;;;0.50;0.50;;;;;;;10.18;59.28;98320.19;4868643;29;20093;-82
2023/12/25 10:49:28;;;;;;;0.50;0.50;;;;;;;10.23;59.78;98313.19;4861243;29;20056;-81
2023/12/25 10:51:55;;;;;;;0.50;0.50;;;;;;;10.15;60.16;98305.00;4868991;29;20045;-82
2023/12/25 10:54:22;;;;;;;0.60;0.60;;;;;;;10.09;60.31;98309.31;4866542;29;20052;-81
2023/12/25 10:56:48;;;;;;;0.60;0.60;;;;;;;10.14;60.32;98312.97;4881750;29;20419;-80
2023/12/25 10:59:32;;;;;;;0.60;0.60;;;;;;;10.19;60.33;98306.88;4880349;29;20056;-81
2023/12/25 11:02:02;;;;;;;0.50;0.50;;;;;;;10.20;60.46;98307.78;4866149;29;20037;-82
2023/12/25 11:04:30;;;;;;;0.50;0.50;;;;;;;10.28;60.26;98301.81;4868352;29;20121;-83
2023/12/25 11:06:56;;;;;;;0.60;0.60;;;;;;;10.18;60.72;98299.75;4868473;29;20108;-83
2023/12/25 11:09:22;;;;;;;0.60;0.60;;;;;;;10.30;60.63;98315.19;4866122;29;20148;-82
2023/12/25 11:11:49;;;;;;;0.52;0.52;;;;;;;10.40;60.81;98316.31;4849523;29;20292;-82
2023/12/25 11:14:15;;;;;;;0.60;0.60;;;;;;;10.35;61.05;98318.88;4865882;29;20033;-81
2023/12/25 11:16:40;;;;;;;0.60;0.60;;;;;;;10.43;61.51;98316.34;4866602;29;20111;-81
2023/12/25 11:19:06;;;;;;;0.60;0.60;;;;;;;10.46;61.51;98312.00;4881395;29;20074;-79
2023/12/25 11:21:34;;;;;;;0.60;0.60;;;;;;;10.44;61.49;98318.16;4866531;29;20048;-82
2023/12/25 11:24:00;;;;;;;0.55;0.55;;;;;;;10.33;62.26;98322.34;4865460;29;20041;-82
2023/12/25 11:26:29;;;;;;;0.60;0.60;;;;;;;10.38;62.18;98318.91;4865432;29;20052;-80
2023/12/25 11:29:01;;;;;;;0.60;0.60;;;;;;;10.64;61.67;98327.53;4866935;29;20040;-80
2023/12/25 11:31:28;;;;;;;0.52;0.52;;;;;;;10.58;62.10;98310.47;4869081;29;20112;-81
2023/12/25 11:34:21;;;;;;;0.60;0.60;;;;;;;10.58;62.67;98306.03;4881548;29;20073;-81
2023/12/25 11:36:55;;;;;;;0.50;0.50;;;;;;;10.47;63.66;98305.78;4867805;29;20041;-82